Time;durP1;ratioP1;P1;durP2;ratioP2;P2;SDS_P1;SDS_P2;PMS_P1;PMS_P2;Temp;Humidity;BMP_temperature;BMP_pressure;BME280_temperature;BME280_humidity;BME280_pressure;Samples;Min_cycle;Max_cycle;Signal;HPM_P1;HPM_P2
2023/01/27 00:00:31;;;;;;;9.32;4.07;;;-0.40;99.90;;;;;;5097076;28;20561;-59
2023/01/27 00:02:58;;;;;;;14.05;5.90;;;-0.40;99.90;;;;;;5101783;28;20097;-59
2023/01/27 00:05:25;;;;;;;13.82;5.63;;;-0.50;99.90;;;;;;5109344;28;20051;-60
2023/01/27 00:07:52;;;;;;;14.52;6.18;;;-0.50;99.90;;;;;;5099050;28;20036;-59
2023/01/27 00:10:19;;;;;;;12.82;5.00;;;-0.50;99.90;;;;;;5080695;28;20052;-60
2023/01/27 00:15:33;;;;;;;13.93;6.60;;;-0.50;99.90;;;;;;5103769;28;20039;-54
2023/01/27 00:18:01;;;;;;;13.95;6.60;;;-0.50;99.90;;;;;;5090220;28;20040;-59
2023/01/27 00:26:12;;;;;;;13.73;5.07;;;-0.50;99.90;;;;;;5089697;28;20086;-58
2023/01/27 00:28:42;;;;;;;9.45;5.00;;;-0.50;99.90;;;;;;5076878;28;20097;-59
2023/01/27 00:34:00;;;;;;;13.23;5.13;;;-0.60;99.90;;;;;;5090509;28;20047;-59
2023/01/27 00:36:28;;;;;;;14.93;5.65;;;-0.50;99.90;;;;;;5095903;28;20048;-59
2023/01/27 00:38:55;;;;;;;12.80;4.68;;;-0.60;99.90;;;;;;5102461;28;20381;-53
2023/01/27 00:41:22;;;;;;;12.02;4.93;;;-0.60;99.90;;;;;;5095742;28;20043;-53
2023/01/27 00:43:52;;;;;;;13.63;5.95;;;-0.60;99.90;;;;;;5073030;28;20056;-56
2023/01/27 00:46:20;;;;;;;10.57;5.28;;;-0.60;99.90;;;;;;5077287;28;20051;-56
2023/01/27 00:48:47;;;;;;;14.27;6.68;;;-0.60;99.90;;;;;;5103253;28;20067;-56
2023/01/27 00:51:14;;;;;;;13.18;4.90;;;-0.50;99.90;;;;;;5112137;28;20070;-55
2023/01/27 00:53:41;;;;;;;9.70;4.95;;;-0.50;99.90;;;;;;5094403;28;20056;-54
2023/01/27 00:56:08;;;;;;;10.63;5.38;;;-0.50;99.90;;;;;;5097197;28;20110;-54
2023/01/27 00:58:35;;;;;;;13.52;5.10;;;-0.60;99.90;;;;;;5113859;28;20068;-52
2023/01/27 01:01:06;;;;;;;12.75;4.82;;;-0.60;99.90;;;;;;5094580;28;20040;-56
2023/01/27 01:03:34;;;;;;;9.13;4.50;;;-0.60;99.90;;;;;;5090049;28;20040;-56
2023/01/27 01:06:08;;;;;;;8.52;4.25;;;-0.50;99.90;;;;;;5094716;28;20040;-53
2023/01/27 01:08:36;;;;;;;11.70;4.90;;;-0.50;99.90;;;;;;5092266;28;20060;-56
2023/01/27 01:11:04;;;;;;;9.50;4.10;;;-0.50;99.90;;;;;;5079172;28;20055;-54
2023/01/27 01:13:31;;;;;;;10.02;4.60;;;-0.50;99.90;;;;;;5097662;28;20051;-55
2023/01/27 01:16:14;;;;;;;10.00;4.57;;;-0.50;99.90;;;;;;5094644;28;20040;-54
2023/01/27 01:18:42;;;;;;;10.80;4.93;;;-0.50;99.90;;;;;;5092986;28;20054;-53
2023/01/27 01:21:09;;;;;;;11.35;5.13;;;-0.60;99.90;;;;;;5086242;28;20040;-54
2023/01/27 01:23:44;;;;;;;10.00;4.75;;;-0.60;99.90;;;;;;5097371;28;20043;-54
2023/01/27 01:26:13;;;;;;;8.88;4.50;;;-0.60;99.90;;;;;;5106737;28;20097;-52
2023/01/27 01:28:40;;;;;;;9.93;4.57;;;-0.70;99.90;;;;;;5094395;28;20526;-55
2023/01/27 01:31:12;;;;;;;11.48;5.35;;;-0.70;99.90;;;;;;5108118;28;20047;-55
2023/01/27 01:33:39;;;;;;;8.45;4.28;;;-0.70;99.90;;;;;;5100767;28;20131;-54
2023/01/27 01:36:12;;;;;;;11.75;4.82;;;-0.80;99.90;;;;;;5093567;28;20093;-52
2023/01/27 01:38:40;;;;;;;10.48;4.32;;;-0.90;99.90;;;;;;5093120;28;20051;-53
2023/01/27 01:41:10;;;;;;;10.63;5.28;;;-0.90;99.90;;;;;;5075412;28;20044;-53
2023/01/27 01:43:38;;;;;;;12.48;5.00;;;-0.90;99.90;;;;;;5092587;28;20130;-52
2023/01/27 01:46:08;;;;;;;20.95;7.95;;;-0.90;99.90;;;;;;5097970;28;20070;-52
2023/01/27 01:48:46;;;;;;;16.50;6.07;;;-0.80;99.90;;;;;;5075108;28;20097;-55
2023/01/27 01:51:19;;;;;;;13.07;5.97;;;-0.80;99.90;;;;;;5058591;28;20044;-52
2023/01/27 01:54:12;;;;;;;11.77;4.82;;;-0.80;99.90;;;;;;5092198;28;20044;-54
2023/01/27 01:56:54;;;;;;;15.27;5.32;;;-0.80;99.90;;;;;;5091404;28;20047;-56
2023/01/27 01:59:39;;;;;;;10.25;5.03;;;-0.80;99.90;;;;;;5075329;28;20048;-60
2023/01/27 02:02:11;;;;;;;12.48;4.75;;;-0.70;99.90;;;;;;5100351;28;20027;-55
2023/01/27 02:04:51;;;;;;;8.75;4.05;;;-0.70;99.90;;;;;;5088650;28;20108;-54
2023/01/27 02:07:29;;;;;;;12.25;4.45;;;-0.70;99.90;;;;;;5096985;28;20055;-53
2023/01/27 02:09:57;;;;;;;11.63;5.40;;;-0.70;99.90;;;;;;5113995;28;20043;-54
2023/01/27 02:12:24;;;;;;;9.02;4.50;;;-0.80;99.90;;;;;;5079795;28;20101;-57
2023/01/27 02:14:50;;;;;;;7.63;3.42;;;-0.80;99.90;;;;;;5071149;28;20048;-53
2023/01/27 02:21:19;;;;;;;8.30;4.13;;;-0.80;99.90;;;;;;5085047;28;20061;-61
2023/01/27 02:23:58;;;;;;;;;;;-0.80;99.90;;;;;;5108779;28;20082;-61
2023/01/27 02:26:35;;;;;;;11.63;5.32;;;-0.80;99.90;;;;;;5094713;28;19981;-62
2023/01/27 02:29:11;;;;;;;7.78;3.25;;;-0.80;99.90;;;;;;5065248;28;20044;-61
2023/01/27 02:31:38;;;;;;;11.38;5.53;;;-0.80;99.90;;;;;;5057586;28;20048;-61
2023/01/27 02:34:09;;;;;;;11.40;4.68;;;-0.80;99.90;;;;;;5071843;28;20596;-62
2023/01/27 02:36:49;;;;;;;10.52;4.93;;;-0.90;99.90;;;;;;5091110;28;20036;-61
2023/01/27 02:39:18;;;;;;;15.45;5.65;;;-1.00;99.90;;;;;;5074222;28;20389;-61
2023/01/27 02:41:50;;;;;;;12.45;5.20;;;-1.00;99.90;;;;;;5054776;28;20102;-62
2023/01/27 02:44:17;;;;;;;12.32;4.63;;;-1.00;99.90;;;;;;5072592;28;20040;-61
2023/01/27 02:46:44;;;;;;;12.55;5.60;;;-0.90;99.90;;;;;;5076942;28;20094;-61
2023/01/27 02:49:10;;;;;;;15.07;5.47;;;-0.80;99.90;;;;;;5073610;28;20044;-61
2023/01/27 02:51:38;;;;;;;11.77;5.35;;;-0.80;99.90;;;;;;5070960;28;20045;-62
2023/01/27 02:54:05;;;;;;;12.55;5.25;;;-0.80;99.90;;;;;;5060530;28;20052;-62
2023/01/27 02:56:32;;;;;;;10.18;5.28;;;-0.80;99.90;;;;;;5079692;28;20036;-62
2023/01/27 02:58:59;;;;;;;11.85;5.10;;;-0.20;99.90;;;;;;5075063;28;20036;-61
2023/01/27 03:01:32;;;;;;;11.82;5.05;;;-0.60;99.90;;;;;;5092391;28;20040;-62
2023/01/27 03:03:59;;;;;;;;;;;-0.70;99.90;;;;;;5062624;28;20173;-62
2023/01/27 03:06:26;;;;;;;9.38;4.38;;;-0.70;99.90;;;;;;5060261;28;19924;-61
2023/01/27 03:08:52;;;;;;;13.93;5.15;;;-0.70;99.90;;;;;;5063195;28;20049;-61
2023/01/27 03:14:07;;;;;;;15.70;5.63;;;-0.70;99.90;;;;;;5072633;28;19924;-61
2023/01/27 03:19:20;;;;;;;10.85;5.18;;;-0.90;99.90;;;;;;5057964;28;20044;-61
2023/01/27 03:21:49;;;;;;;11.20;6.25;;;-0.80;99.90;;;;;;5073225;28;20665;-62
2023/01/27 03:24:17;;;;;;;14.20;5.60;;;-0.80;99.90;;;;;;5068519;28;20032;-61
2023/01/27 03:26:45;;;;;;;12.85;5.63;;;-0.80;99.90;;;;;;5073553;28;20074;-62
2023/01/27 03:32:00;;;;;;;10.80;5.38;;;-0.80;99.90;;;;;;5071250;28;20048;-62
2023/01/27 03:34:28;;;;;;;12.95;5.80;;;-0.80;99.90;;;;;;5064998;28;20094;-62
2023/01/27 03:48:05;;;;;;;12.40;5.18;;;-0.70;99.90;;;;;;5089003;28;20469;-62
2023/01/27 03:50:41;;;;;;;9.35;4.10;;;-0.70;99.90;;;;;;5091291;28;20487;-62
2023/01/27 03:53:09;;;;;;;13.23;5.82;;;-0.70;99.90;;;;;;5087799;28;20036;-61
2023/01/27 03:55:37;;;;;;;14.35;6.13;;;-0.70;99.90;;;;;;5089313;28;20067;-62
2023/01/27 03:58:18;;;;;;;15.70;6.70;;;-0.80;99.90;;;;;;5090054;28;20044;-61
2023/01/27 04:00:48;;;;;;;13.90;6.50;;;-0.80;99.90;;;;;;5091655;28;20444;-62
2023/01/27 04:08:55;;;;;;;12.43;5.60;;;-0.80;99.90;;;;;;5053329;28;20107;-62
2023/01/27 04:14:08;;;;;;;12.90;6.18;;;-0.80;99.90;;;;;;5089347;28;20040;-62
2023/01/27 04:16:35;;;;;;;13.50;6.07;;;-0.80;99.90;;;;;;5089876;28;20097;-62
2023/01/27 04:19:04;;;;;;;15.75;5.82;;;-0.70;99.90;;;;;;5090879;28;20052;-61
2023/01/27 04:21:31;;;;;;;14.40;6.38;;;-0.70;99.90;;;;;;5087253;28;20381;-61
2023/01/27 04:23:58;;;;;;;12.82;6.03;;;-0.70;99.90;;;;;;5090953;28;20067;-62
2023/01/27 04:26:31;;;;;;;14.35;6.65;;;-0.70;99.90;;;;;;5090306;28;20512;-61
2023/01/27 04:28:59;;;;;;;13.15;6.50;;;-0.70;99.90;;;;;;5085717;28;20032;-61
2023/01/27 04:31:26;;;;;;;13.90;6.43;;;-0.60;99.90;;;;;;5095645;28;20052;-61
2023/01/27 04:33:53;;;;;;;12.68;6.18;;;-0.60;99.90;;;;;;5090063;28;20067;-62
2023/01/27 04:36:20;;;;;;;11.77;5.38;;;-0.70;99.90;;;;;;5090397;28;20052;-62
2023/01/27 04:38:47;;;;;;;12.90;5.88;;;-0.60;99.90;;;;;;5089582;28;20079;-62
2023/01/27 04:41:14;;;;;;;14.05;6.28;;;-0.70;99.90;;;;;;5103281;28;20549;-62
2023/01/27 04:43:40;;;;;;;9.00;4.88;;;-0.70;99.90;;;;;;5110792;28;20040;-61
2023/01/27 04:46:07;;;;;;;11.70;5.40;;;-0.70;99.90;;;;;;5105412;28;20058;-61
2023/01/27 04:48:34;;;;;;;13.57;5.50;;;-0.70;99.90;;;;;;5086373;28;20048;-62
2023/01/27 04:51:01;;;;;;;12.02;5.95;;;-0.80;99.90;;;;;;5090042;28;20044;-62
2023/01/27 04:53:27;;;;;;;12.73;6.05;;;-0.70;99.90;;;;;;5082072;28;20080;-62
2023/01/27 04:56:04;;;;;;;14.70;5.53;;;-0.70;99.90;;;;;;5087969;28;20039;-61
2023/01/27 04:58:31;;;;;;;12.45;6.18;;;-0.80;99.90;;;;;;5092396;28;20304;-61
2023/01/27 05:00:58;;;;;;;24.38;8.45;;;-0.70;99.90;;;;;;5096331;28;20036;-62
2023/01/27 05:03:25;;;;;;;16.25;6.65;;;-0.70;99.90;;;;;;5089561;28;20036;-62
2023/01/27 05:05:52;;;;;;;18.80;7.47;;;-0.70;99.90;;;;;;5107812;28;20040;-61
2023/01/27 05:08:18;;;;;;;20.02;7.40;;;-0.70;99.90;;;;;;5110443;28;20083;-61
2023/01/27 05:10:45;;;;;;;17.00;6.70;;;-0.70;99.90;;;;;;5098692;28;20493;-62
2023/01/27 05:13:12;;;;;;;13.70;6.35;;;-0.70;99.90;;;;;;5095137;28;20071;-62
2023/01/27 05:15:39;;;;;;;16.85;6.18;;;-0.70;99.90;;;;;;5089524;28;20036;-62
2023/01/27 05:18:06;;;;;;;14.98;6.88;;;-0.80;99.90;;;;;;5089039;28;20040;-62
2023/01/27 05:20:32;;;;;;;11.70;5.53;;;-0.80;99.90;;;;;;5055682;28;20455;-61
2023/01/27 05:25:44;;;;;;;19.80;8.52;;;-0.90;99.90;;;;;;5090425;28;20100;-61
2023/01/27 05:28:11;;;;;;;23.23;8.68;;;-0.90;99.90;;;;;;5090992;28;20048;-62
2023/01/27 05:30:38;;;;;;;14.68;6.18;;;-0.80;99.90;;;;;;5082549;28;20484;-62
2023/01/27 05:33:06;;;;;;;23.20;8.52;;;-0.90;99.90;;;;;;5086288;28;21260;-62
2023/01/27 05:35:34;;;;;;;13.88;7.53;;;-0.90;99.90;;;;;;5081747;28;20097;-61
2023/01/27 05:38:01;;;;;;;;;;;-0.90;99.90;;;;;;5092530;28;20044;-61
2023/01/27 05:40:28;;;;;;;19.42;7.53;;;-0.90;99.90;;;;;;5092892;28;19926;-61
2023/01/27 05:42:55;;;;;;;;;;;-0.90;99.90;;;;;;5087850;28;20097;-62
2023/01/27 05:45:21;;;;;;;18.52;7.53;;;-0.90;99.90;;;;;;5093428;28;19970;-62
2023/01/27 05:47:51;;;;;;;14.63;4.60;;;-0.80;99.90;;;;;;5090323;28;20097;-62
2023/01/27 05:50:18;;;;;;;15.38;6.90;;;-0.80;99.90;;;;;;5093155;28;20083;-61
2023/01/27 05:52:45;;;;;;;12.73;5.57;;;-0.80;99.90;;;;;;5091160;28;20496;-62
2023/01/27 05:55:12;;;;;;;10.73;4.72;;;-0.80;99.90;;;;;;5092980;28;20036;-61
2023/01/27 05:57:39;;;;;;;12.10;5.10;;;-0.90;99.90;;;;;;5087704;28;20046;-61
2023/01/27 06:00:06;;;;;;;10.77;5.15;;;-0.90;99.90;;;;;;5088515;28;20067;-61
2023/01/27 06:02:33;;;;;;;10.43;4.90;;;-0.90;99.90;;;;;;5082065;28;20558;-61
2023/01/27 06:05:00;;;;;;;12.93;5.82;;;-0.90;99.90;;;;;;5077547;28;20037;-61
2023/01/27 06:07:27;;;;;;;17.20;6.88;;;-0.90;99.90;;;;;;5091821;28;20105;-62
2023/01/27 06:09:54;;;;;;;10.90;4.30;;;-0.80;99.90;;;;;;5088352;28;20087;-61
2023/01/27 06:12:20;;;;;;;12.60;4.85;;;-0.80;99.90;;;;;;5090687;28;20446;-62
2023/01/27 06:14:47;;;;;;;17.88;7.38;;;-0.80;99.90;;;;;;5092540;28;20100;-60
2023/01/27 06:17:14;;;;;;;15.68;6.70;;;-0.90;99.90;;;;;;5091115;28;20068;-61
2023/01/27 06:19:40;;;;;;;16.58;6.88;;;-0.90;99.90;;;;;;5092709;28;20071;-61
2023/01/27 06:22:07;;;;;;;13.82;6.10;;;-0.90;99.90;;;;;;5094993;28;20047;-61
2023/01/27 06:24:34;;;;;;;15.98;6.47;;;-0.90;99.90;;;;;;5113910;28;20384;-60
2023/01/27 06:27:00;;;;;;;15.57;6.13;;;-0.90;99.90;;;;;;5108673;28;20043;-61
2023/01/27 06:29:27;;;;;;;11.85;5.28;;;-0.90;99.90;;;;;;5092669;28;20101;-61
2023/01/27 06:31:54;;;;;;;13.55;5.85;;;-1.00;99.90;;;;;;5091869;28;20044;-61
2023/01/27 06:34:21;;;;;;;17.05;7.05;;;-1.00;99.90;;;;;;5093121;28;20040;-61
2023/01/27 06:36:47;;;;;;;13.75;5.30;;;-1.00;99.90;;;;;;5091639;28;20109;-61
2023/01/27 06:39:15;;;;;;;13.98;5.35;;;-1.00;99.90;;;;;;5091956;28;20032;-61
2023/01/27 06:41:42;;;;;;;24.50;8.85;;;-1.00;99.90;;;;;;5091192;28;20048;-61
2023/01/27 06:44:08;;;;;;;21.88;7.70;;;-0.80;99.90;;;;;;5091576;28;20073;-61
2023/01/27 06:46:35;;;;;;;11.57;6.00;;;-1.00;99.90;;;;;;5075043;28;20060;-62
2023/01/27 06:49:02;;;;;;;17.95;7.75;;;-1.00;99.90;;;;;;5091920;28;20055;-61
2023/01/27 06:51:29;;;;;;;14.63;7.15;;;-1.00;99.90;;;;;;5095604;28;20097;-61
2023/01/27 06:53:56;;;;;;;10.52;4.30;;;-1.00;99.90;;;;;;5091970;28;20068;-61
2023/01/27 06:56:22;;;;;;;11.75;5.40;;;-1.00;99.90;;;;;;5091529;28;20040;-61
2023/01/27 06:58:49;;;;;;;17.33;7.65;;;-1.00;99.90;;;;;;5091519;28;20097;-61
2023/01/27 07:01:16;;;;;;;17.17;7.38;;;-0.90;99.90;;;;;;5099145;28;20067;-61
2023/01/27 07:03:43;;;;;;;19.10;7.32;;;-0.90;99.90;;;;;;5055630;28;20072;-60
2023/01/27 07:06:10;;;;;;;20.95;7.35;;;-0.90;99.90;;;;;;5110183;28;20035;-61
2023/01/27 07:08:37;;;;;;;16.85;8.45;;;-0.90;99.90;;;;;;5111292;28;20101;-61
2023/01/27 07:11:04;;;;;;;18.35;8.77;;;-0.80;99.90;;;;;;5098396;28;20047;-61
2023/01/27 07:13:31;;;;;;;17.77;6.40;;;-0.80;99.90;;;;;;5090124;28;20077;-61
2023/01/27 07:15:59;;;;;;;15.45;6.60;;;-0.80;99.90;;;;;;5091788;28;20048;-61
2023/01/27 07:18:25;;;;;;;18.52;7.13;;;-0.80;99.90;;;;;;5091108;28;20044;-61
2023/01/27 07:20:52;;;;;;;11.95;5.53;;;-0.70;99.90;;;;;;5089863;28;20036;-61
2023/01/27 07:23:19;;;;;;;13.55;5.60;;;-0.70;99.90;;;;;;5090963;28;20101;-61
2023/01/27 07:25:46;;;;;;;16.15;6.78;;;-0.80;99.90;;;;;;5090459;28;20416;-60
2023/01/27 07:28:13;;;;;;;9.20;5.00;;;-0.70;99.90;;;;;;5093648;28;20075;-61
2023/01/27 07:30:40;;;;;;;16.15;7.30;;;-0.70;99.90;;;;;;5111705;28;20574;-61
2023/01/27 07:33:10;;;;;;;19.88;8.38;;;-0.80;99.90;;;;;;5087358;28;20090;-61
2023/01/27 07:35:38;;;;;;;20.02;7.20;;;-0.60;99.90;;;;;;5087119;28;20064;-61
2023/01/27 07:38:06;;;;;;;17.20;7.00;;;-0.70;99.90;;;;;;5090530;28;20047;-61
2023/01/27 07:40:33;;;;;;;17.70;7.43;;;-0.70;99.90;;;;;;5092297;28;20078;-61
2023/01/27 07:43:00;;;;;;;16.27;6.75;;;-0.50;99.90;;;;;;5089316;28;20508;-61
2023/01/27 07:45:28;;;;;;;16.02;6.75;;;-0.60;99.90;;;;;;5083142;28;20056;-61
2023/01/27 07:48:01;;;;;;;;;;;-0.60;99.90;;;;;;5090603;28;20044;-61
2023/01/27 07:50:29;;;;;;;17.20;7.10;;;-0.60;99.90;;;;;;5091057;28;20433;-61
2023/01/27 07:53:00;;;;;;;17.80;6.80;;;-0.50;99.90;;;;;;5089375;28;20072;-61
2023/01/27 07:55:27;;;;;;;17.10;6.95;;;-0.50;99.90;;;;;;5090112;28;20101;-61
2023/01/27 07:57:55;;;;;;;15.68;7.35;;;-0.60;99.90;;;;;;5090333;28;20067;-61
2023/01/27 08:00:21;;;;;;;;;;;-0.60;99.90;;;;;;5091742;28;20107;-61
2023/01/27 08:02:52;;;;;;;16.02;6.53;;;-0.60;99.90;;;;;;5089881;28;19963;-61
2023/01/27 08:05:21;;;;;;;14.70;6.53;;;-0.70;99.90;;;;;;5088350;28;20120;-61
2023/01/27 08:07:52;;;;;;;18.70;8.30;;;-0.60;99.90;;;;;;5089000;28;20057;-61
2023/01/27 08:10:19;;;;;;;14.60;7.05;;;-0.60;99.90;;;;;;5091210;28;20044;-61
2023/01/27 08:12:46;;;;;;;16.83;7.07;;;-0.60;99.90;;;;;;5090047;28;20559;-61
2023/01/27 08:15:13;;;;;;;16.23;6.78;;;-0.60;99.90;;;;;;5091104;28;20040;-61
2023/01/27 08:17:43;;;;;;;18.90;7.85;;;-0.50;99.90;;;;;;5105035;22;20055;-57
2023/01/27 08:20:11;;;;;;;15.93;6.30;;;-0.50;99.90;;;;;;5084859;28;20036;-58
2023/01/27 08:22:38;;;;;;;13.68;6.55;;;-0.50;99.90;;;;;;5084892;28;20044;-57
2023/01/27 08:25:05;;;;;;;14.93;6.75;;;-0.40;99.90;;;;;;5088302;28;20497;-58
2023/01/27 08:27:32;;;;;;;16.02;6.20;;;-0.40;99.90;;;;;;5090162;28;20068;-57
2023/01/27 08:29:58;;;;;;;12.95;4.57;;;-0.40;99.90;;;;;;5089702;28;20075;-55
2023/01/27 08:32:25;;;;;;;16.15;6.00;;;-0.30;99.90;;;;;;5073067;28;20049;-58
2023/01/27 08:34:53;;;;;;;10.88;4.50;;;-0.40;99.90;;;;;;5078941;28;20067;-58
2023/01/27 08:37:19;;;;;;;16.45;6.25;;;-0.30;99.90;;;;;;5085536;28;20076;-58
2023/01/27 08:39:46;;;;;;;9.77;4.63;;;-0.20;99.90;;;;;;5077735;28;20116;-57
2023/01/27 08:42:13;;;;;;;13.85;6.32;;;-0.20;99.90;;;;;;5083121;28;20040;-54
2023/01/27 08:44:40;;;;;;;12.80;4.55;;;-0.10;99.90;;;;;;5089443;28;20040;-57
2023/01/27 08:47:06;;;;;;;15.18;6.43;;;0.00;99.90;;;;;;5067915;28;20163;-56
2023/01/27 08:49:33;;;;;;;13.88;7.05;;;0.00;99.90;;;;;;5071171;28;20544;-56
2023/01/27 08:52:00;;;;;;;13.38;6.43;;;0.00;99.90;;;;;;5088541;28;20063;-56
2023/01/27 08:54:27;;;;;;;12.50;5.15;;;0.80;99.90;;;;;;5089673;28;20078;-57
2023/01/27 08:56:53;;;;;;;16.55;6.85;;;0.10;99.90;;;;;;5069270;28;20412;-57
2023/01/27 08:59:20;;;;;;;12.77;5.43;;;0.10;99.90;;;;;;5076747;28;20496;-57
2023/01/27 09:01:47;;;;;;;11.75;5.30;;;0.00;99.90;;;;;;5083815;28;20032;-57
2023/01/27 09:04:13;;;;;;;11.38;4.80;;;0.00;99.90;;;;;;5071894;28;20045;-58
2023/01/27 09:06:40;;;;;;;11.52;4.93;;;0.00;99.90;;;;;;5074372;28;20041;-55
2023/01/27 09:09:10;;;;;;;14.60;6.13;;;0.00;99.90;;;;;;5072257;28;20135;-56
2023/01/27 09:11:41;;;;;;;14.60;6.32;;;0.20;99.90;;;;;;5076797;28;20493;-57
2023/01/27 09:14:09;;;;;;;17.05;7.03;;;0.20;99.90;;;;;;5082107;28;20044;-56
2023/01/27 09:16:36;;;;;;;;;;;0.30;99.90;;;;;;5074685;28;20052;-58
2023/01/27 09:19:03;;;;;;;17.90;6.60;;;0.40;99.90;;;;;;5069253;28;19924;-54
2023/01/27 09:21:29;;;;;;;14.68;6.57;;;0.40;99.90;;;;;;5082672;28;20090;-57
2023/01/27 09:23:56;;;;;;;16.15;6.28;;;0.40;99.90;;;;;;5074579;28;20447;-56
2023/01/27 09:26:23;;;;;;;13.60;5.78;;;0.50;99.90;;;;;;5074327;28;20400;-57
2023/01/27 09:28:50;;;;;;;18.70;7.03;;;0.50;99.90;;;;;;5054996;28;20587;-55
2023/01/27 09:31:17;;;;;;;8.10;4.13;;;0.50;99.90;;;;;;5069690;28;20087;-57
2023/01/27 09:33:44;;;;;;;17.75;6.15;;;0.50;99.90;;;;;;5081699;28;20103;-57
2023/01/27 09:36:14;;;;;;;10.70;4.80;;;0.50;99.90;;;;;;5073112;28;20052;-57
2023/01/27 09:38:56;;;;;;;14.48;6.45;;;0.50;99.90;;;;;;5072798;28;20053;-56
2023/01/27 09:41:39;;;;;;;14.38;7.15;;;0.60;99.90;;;;;;5073620;28;20040;-57
2023/01/27 09:44:47;;;;;;;14.77;6.70;;;0.70;99.90;;;;;;5071493;28;20111;-56
2023/01/27 09:47:23;;;;;;;13.30;5.22;;;0.80;99.90;;;;;;5064876;28;20052;-56
2023/01/27 09:50:10;;;;;;;17.60;6.30;;;0.80;99.90;;;;;;5073892;28;20056;-57
2023/01/27 09:52:57;;;;;;;21.33;7.30;;;0.80;99.90;;;;;;5082228;28;20451;-57
2023/01/27 09:55:41;;;;;;;14.55;6.30;;;1.10;99.90;;;;;;5073299;28;20037;-57
2023/01/27 09:58:35;;;;;;;17.23;6.90;;;1.20;99.90;;;;;;5072503;28;20040;-56
2023/01/27 10:01:19;;;;;;;14.00;5.50;;;1.30;99.90;;;;;;5064071;28;20036;-56
2023/01/27 10:03:58;;;;;;;9.80;5.25;;;1.30;99.90;;;;;;5091907;28;20050;-58
2023/01/27 10:06:27;;;;;;;11.88;5.97;;;1.30;99.90;;;;;;5093106;28;20040;-57
2023/01/27 10:09:09;;;;;;;17.17;5.97;;;1.40;99.90;;;;;;5072591;28;20505;-56
2023/01/27 10:11:39;;;;;;;14.43;6.28;;;1.30;99.90;;;;;;5067173;28;20543;-57
2023/01/27 10:14:24;;;;;;;18.52;6.13;;;1.20;99.90;;;;;;5073241;28;20052;-57
2023/01/27 10:16:59;;;;;;;14.48;5.97;;;1.30;99.90;;;;;;5071113;28;20119;-55
2023/01/27 10:19:55;;;;;;;14.05;6.38;;;1.30;99.90;;;;;;5073598;28;20508;-57
2023/01/27 10:22:55;;;;;;;13.70;6.68;;;1.40;99.90;;;;;;5047818;28;20456;-56
2023/01/27 10:25:50;;;;;;;11.27;6.00;;;1.50;99.90;;;;;;5071135;28;20032;-57
2023/01/27 10:28:25;;;;;;;11.65;5.28;;;1.30;99.90;;;;;;5077676;28;20052;-58
2023/01/27 10:31:00;;;;;;;21.25;6.20;;;1.40;99.90;;;;;;5088599;28;20048;-57
2023/01/27 10:33:49;;;;;;;13.05;5.53;;;1.20;99.90;;;;;;5071894;28;20071;-57
2023/01/27 10:36:26;;;;;;;13.52;7.25;;;1.00;99.90;;;;;;5072584;28;20067;-57
2023/01/27 10:39:19;;;;;;;17.13;7.30;;;1.00;99.90;;;;;;5092400;28;20086;-57
2023/01/27 10:41:58;;;;;;;22.08;7.72;;;1.00;99.90;;;;;;5078291;28;20044;-58
2023/01/27 10:44:42;;;;;;;20.15;7.22;;;1.10;99.90;;;;;;5074244;28;20071;-56
2023/01/27 10:47:35;;;;;;;21.83;7.38;;;1.10;99.90;;;;;;5084777;28;20064;-57
2023/01/27 10:50:18;;;;;;;18.88;7.82;;;1.40;99.90;;;;;;5089282;28;20048;-57
2023/01/27 10:52:55;;;;;;;18.33;6.90;;;1.50;99.90;;;;;;5065940;28;20041;-58
2023/01/27 10:55:28;;;;;;;15.98;5.63;;;1.60;99.90;;;;;;5076091;28;20071;-57
2023/01/27 10:58:05;;;;;;;16.42;6.82;;;1.70;99.90;;;;;;5092108;28;20219;-58
2023/01/27 11:00:53;;;;;;;38.17;6.38;;;1.60;99.90;;;;;;5081302;28;20576;-57
2023/01/27 11:03:50;;;;;;;17.05;6.60;;;1.90;99.90;;;;;;5071249;28;20044;-56
2023/01/27 11:06:23;;;;;;;12.23;6.65;;;2.00;99.90;;;;;;5069282;28;20037;-56
2023/01/27 11:08:55;;;;;;;20.23;8.02;;;2.00;99.90;;;;;;5071796;28;20452;-58
2023/01/27 11:14:39;;;;;;;28.85;7.25;;;2.10;99.90;;;;;;5087364;28;20110;-57
2023/01/27 11:17:26;;;;;;;17.23;7.10;;;2.00;99.90;;;;;;5069243;28;20165;-57
2023/01/27 11:20:17;;;;;;;18.00;6.82;;;1.90;99.90;;;;;;5076500;28;20094;-58
2023/01/27 11:23:07;;;;;;;20.50;6.57;;;2.10;99.90;;;;;;5091662;28;20059;-58
2023/01/27 11:25:51;;;;;;;20.38;6.68;;;2.20;99.90;;;;;;5073421;28;20068;-58
2023/01/27 11:28:31;;;;;;;16.55;7.03;;;2.20;99.90;;;;;;5071574;28;20051;-59
2023/01/27 11:31:10;;;;;;;17.95;6.70;;;2.20;99.90;;;;;;5071863;28;20056;-56
2023/01/27 11:34:18;;;;;;;24.58;8.07;;;2.10;99.90;;;;;;5085149;28;20040;-54
2023/01/27 11:36:45;;;;;;;19.13;7.70;;;2.10;99.90;;;;;;5026246;28;20064;-57
2023/01/27 11:39:15;;;;;;;16.58;7.45;;;1.90;99.90;;;;;;5062525;28;20123;-57
2023/01/27 11:41:53;;;;;;;18.88;6.97;;;2.00;99.90;;;;;;5052419;28;20099;-58
2023/01/27 11:44:23;;;;;;;16.33;6.97;;;2.00;99.90;;;;;;5082219;28;20109;-57
2023/01/27 11:46:51;;;;;;;18.02;7.35;;;1.90;99.90;;;;;;5090546;28;20089;-57
2023/01/27 11:49:28;;;;;;;19.90;7.65;;;1.90;99.90;;;;;;5074873;28;20504;-59
2023/01/27 11:52:04;;;;;;;12.63;6.10;;;1.80;99.90;;;;;;5065115;28;20395;-59
2023/01/27 11:54:47;;;;;;;17.08;6.93;;;1.80;99.90;;;;;;5085380;28;20129;-57
2023/01/27 11:57:20;;;;;;;16.88;7.25;;;1.80;99.90;;;;;;5051765;28;20095;-57
2023/01/27 11:59:51;;;;;;;16.75;7.25;;;1.80;99.90;;;;;;5071477;28;20044;-58
2023/01/27 12:02:37;;;;;;;15.00;6.53;;;1.90;99.90;;;;;;5063922;28;20094;-59
2023/01/27 12:05:16;;;;;;;24.88;7.97;;;2.00;99.90;;;;;;5090442;28;20046;-56
2023/01/27 12:07:56;;;;;;;17.13;7.32;;;2.00;99.90;;;;;;5081199;28;20041;-57
2023/01/27 12:10:34;;;;;;;17.33;6.78;;;2.10;99.90;;;;;;5067857;28;20076;-58
2023/01/27 12:13:27;;;;;;;22.02;6.75;;;2.10;99.90;;;;;;5084017;28;20039;-56
2023/01/27 12:15:59;;;;;;;15.90;6.70;;;2.10;99.90;;;;;;5090328;28;20098;-58
2023/01/27 12:18:30;;;;;;;38.92;7.80;;;2.20;99.90;;;;;;5072532;28;20044;-56
2023/01/27 12:21:03;;;;;;;15.30;6.95;;;2.20;99.90;;;;;;5062154;28;20069;-58
2023/01/27 12:23:36;;;;;;;14.50;6.82;;;2.30;99.90;;;;;;5084387;28;20044;-58
2023/01/27 12:26:07;;;;;;;20.75;7.35;;;2.30;99.90;;;;;;5087851;28;20451;-57
2023/01/27 12:28:35;;;;;;;17.27;7.40;;;2.30;99.90;;;;;;5071017;28;20075;-56
2023/01/27 12:31:23;;;;;;;26.38;7.00;;;2.40;99.90;;;;;;5068947;28;20106;-58
2023/01/27 12:34:04;;;;;;;15.68;6.97;;;2.30;99.90;;;;;;5084843;28;20524;-57
2023/01/27 12:36:41;;;;;;;12.98;6.38;;;2.30;99.90;;;;;;5081376;28;20068;-56
2023/01/27 12:39:44;;;;;;;11.98;5.38;;;2.30;99.90;;;;;;5070333;28;20072;-56
2023/01/27 12:42:40;;;;;;;15.32;7.63;;;2.10;99.90;;;;;;5080029;28;20090;-58
2023/01/27 12:45:30;;;;;;;15.38;6.88;;;2.10;99.90;;;;;;5089825;28;20043;-59
2023/01/27 12:48:11;;;;;;;23.13;7.13;;;2.10;99.90;;;;;;5070651;28;20045;-58
2023/01/27 12:50:40;;;;;;;19.70;6.93;;;2.00;99.90;;;;;;5064912;28;20586;-57
2023/01/27 12:53:15;;;;;;;14.00;6.40;;;2.00;99.90;;;;;;5070103;28;20094;-58
2023/01/27 12:55:48;;;;;;;18.73;7.10;;;2.10;99.90;;;;;;5061548;28;20096;-59
2023/01/27 12:58:34;;;;;;;13.27;6.60;;;2.30;99.90;;;;;;5074629;28;20156;-58
2023/01/27 13:01:19;;;;;;;26.48;6.78;;;2.40;99.90;;;;;;5073446;28;20079;-57
2023/01/27 13:04:13;;;;;;;18.58;7.57;;;2.50;99.90;;;;;;5079139;28;20160;-58
2023/01/27 13:06:43;;;;;;;13.13;6.10;;;2.50;99.90;;;;;;5070422;28;20095;-58
2023/01/27 13:09:49;;;;;;;14.02;6.25;;;2.50;99.90;;;;;;5069416;28;20619;-58
2023/01/27 13:12:19;;;;;;;17.92;6.90;;;2.40;99.90;;;;;;5058743;28;20107;-57
2023/01/27 13:14:51;;;;;;;19.10;6.80;;;2.40;99.90;;;;;;5064652;28;20045;-57
2023/01/27 13:17:33;;;;;;;29.58;7.45;;;2.40;99.90;;;;;;5069086;28;20048;-58
2023/01/27 13:20:32;;;;;;;21.55;6.82;;;2.50;99.90;;;;;;5065062;28;20040;-57
2023/01/27 13:23:13;;;;;;;27.17;6.70;;;2.50;99.90;;;;;;5089549;28;20040;-59
2023/01/27 13:26:07;;;;;;;20.80;7.10;;;2.40;99.90;;;;;;5053920;28;20041;-57
2023/01/27 13:28:58;;;;;;;18.08;7.05;;;2.40;99.90;;;;;;5069192;28;20123;-58
2023/01/27 13:31:47;;;;;;;16.98;7.85;;;2.20;99.90;;;;;;5079328;28;20055;-57
2023/01/27 13:34:35;;;;;;;16.80;7.28;;;2.10;99.90;;;;;;5080510;28;20122;-56
2023/01/27 13:37:18;;;;;;;21.23;6.65;;;2.10;99.90;;;;;;5069199;28;20449;-57
2023/01/27 13:40:13;;;;;;;12.95;6.07;;;2.10;99.90;;;;;;5068847;28;20049;-56
2023/01/27 13:42:50;;;;;;;14.30;7.03;;;2.10;99.90;;;;;;5079187;28;20055;-57
2023/01/27 13:45:43;;;;;;;12.50;6.35;;;2.10;99.90;;;;;;5050024;28;20045;-57
2023/01/27 13:48:22;;;;;;;16.23;6.18;;;2.00;99.90;;;;;;5053789;28;20040;-57
2023/01/27 13:50:54;;;;;;;11.18;6.13;;;2.00;99.90;;;;;;5074283;28;20575;-58
2023/01/27 13:53:21;;;;;;;13.95;5.78;;;2.00;99.90;;;;;;5084838;28;20111;-57
2023/01/27 13:56:06;;;;;;;11.18;5.07;;;2.00;99.90;;;;;;5080909;28;20098;-57
2023/01/27 13:59:04;;;;;;;18.23;6.38;;;2.00;99.90;;;;;;5081437;28;20044;-58